createdAt,value
2022-09-02T00:01:57.586Z,18.82
2022-09-02T00:04:26.145Z,18.95
2022-09-02T00:06:54.341Z,19.03
2022-09-02T00:09:23.682Z,19.10
2022-09-02T00:11:52.013Z,19.01
2022-09-02T00:14:25.824Z,19.08
2022-09-02T00:16:53.008Z,19.10
2022-09-02T00:19:25.432Z,19.16
2022-09-02T00:21:54.151Z,18.91
2022-09-02T00:24:22.394Z,18.74
2022-09-02T00:26:49.768Z,18.46
2022-09-02T00:29:17.261Z,18.35
2022-09-02T00:31:45.461Z,18.45
2022-09-02T00:34:12.598Z,18.41
2022-09-02T00:36:40.339Z,18.57
2022-09-02T00:39:08.862Z,18.59
2022-09-02T00:41:38.366Z,18.68
2022-09-02T00:44:11.027Z,18.79
2022-09-02T00:46:39.435Z,18.88
2022-09-02T00:49:13.156Z,19.05
2022-09-02T00:51:44.594Z,19.21
2022-09-02T00:54:14.416Z,19.23
2022-09-02T00:56:43.812Z,19.17
2022-09-02T00:59:15.917Z,19.06
2022-09-02T01:01:42.570Z,19.02
2022-09-02T01:04:12.675Z,18.95
2022-09-02T01:06:39.942Z,19.02
2022-09-02T01:09:12.912Z,18.99
2022-09-02T01:11:48.678Z,19.01
2022-09-02T01:14:16.834Z,19.05
2022-09-02T01:16:47.827Z,19.06
2022-09-02T01:19:28.506Z,19.08
2022-09-02T01:21:57.316Z,18.98
2022-09-02T01:24:28.527Z,18.99
2022-09-02T01:26:57.051Z,18.87
2022-09-02T01:29:25.069Z,18.84
2022-09-02T01:31:52.571Z,18.81
2022-09-02T01:34:19.538Z,18.50
2022-09-02T01:36:46.588Z,18.61
2022-09-02T01:39:13.931Z,18.49
2022-09-02T01:41:41.053Z,18.48
2022-09-02T01:44:08.131Z,18.41
2022-09-02T01:46:36.378Z,18.32
2022-09-02T01:49:03.834Z,18.28
2022-09-02T01:51:31.398Z,18.10
2022-09-02T01:53:57.997Z,17.75
2022-09-02T01:56:24.595Z,17.81
2022-09-02T01:58:51.498Z,17.80
2022-09-02T02:01:19.866Z,17.71
2022-09-02T02:03:46.615Z,17.87
2022-09-02T02:06:17.478Z,17.69
2022-09-02T02:08:45.124Z,17.44
2022-09-02T02:11:12.550Z,17.37
2022-09-02T02:13:39.139Z,17.22
2022-09-02T02:16:06.504Z,17.16
2022-09-02T02:18:33.192Z,17.20
2022-09-02T02:20:59.890Z,17.31
2022-09-02T02:23:26.824Z,17.25
2022-09-02T02:25:53.440Z,17.19
2022-09-02T02:28:20.979Z,17.10
2022-09-02T02:30:47.907Z,17.14
2022-09-02T02:33:14.921Z,17.06
2022-09-02T02:35:42.347Z,16.95
2022-09-02T02:38:10.273Z,16.84
2022-09-02T02:40:40.865Z,16.86
2022-09-02T02:43:07.547Z,16.76
2022-09-02T02:45:34.295Z,16.89
2022-09-02T02:48:00.970Z,16.83
2022-09-02T02:50:27.632Z,16.93
2022-09-02T02:52:54.964Z,17.00
2022-09-02T02:55:23.077Z,17.14
2022-09-02T02:57:50.800Z,17.12
2022-09-02T03:00:24.983Z,17.13
2022-09-02T03:02:59.152Z,17.25
2022-09-02T03:05:27.246Z,17.25
2022-09-02T03:07:54.469Z,17.32
2022-09-02T03:10:22.234Z,17.38
2022-09-02T03:12:49.221Z,17.47
2022-09-02T03:15:17.857Z,17.50
2022-09-02T03:17:45.746Z,17.38
2022-09-02T03:20:12.619Z,17.37
2022-09-02T03:22:40.237Z,17.39
2022-09-02T03:25:09.088Z,17.37
2022-09-02T03:27:38.368Z,17.49
2022-09-02T03:30:07.868Z,17.55
2022-09-02T03:32:34.550Z,17.53
2022-09-02T03:35:03.313Z,17.63
2022-09-02T03:37:30.102Z,17.69
2022-09-02T03:39:56.752Z,17.64
2022-09-02T03:42:23.390Z,17.64
2022-09-02T03:44:50.047Z,17.61
2022-09-02T03:47:17.785Z,17.47
2022-09-02T03:49:47.499Z,17.58
2022-09-02T03:52:14.189Z,17.62
2022-09-02T03:54:40.796Z,17.61
2022-09-02T03:57:07.389Z,17.66
2022-09-02T03:59:34.061Z,17.66
2022-09-02T04:02:03.293Z,17.78
2022-09-02T04:04:30.540Z,17.80
2022-09-02T04:06:58.275Z,17.94
2022-09-02T04:09:25.079Z,17.96
2022-09-02T04:11:51.740Z,17.99
2022-09-02T04:14:18.449Z,18.05
2022-09-02T04:16:45.069Z,17.99
2022-09-02T04:19:11.777Z,18.16
2022-09-02T04:21:41.841Z,18.12
2022-09-02T04:24:10.957Z,18.19
2022-09-02T04:26:37.773Z,18.21
2022-09-02T04:29:11.617Z,18.20
2022-09-02T04:31:38.236Z,18.18
2022-09-02T04:34:04.960Z,18.23
2022-09-02T04:36:31.611Z,18.19
2022-09-02T04:38:58.416Z,18.24
2022-09-02T04:41:28.493Z,18.30
2022-09-02T04:43:57.343Z,18.34
2022-09-02T04:46:34.716Z,18.43
2022-09-02T04:49:03.059Z,18.45
2022-09-02T04:51:29.808Z,18.49
2022-09-02T04:53:56.465Z,18.47
2022-09-02T04:56:27.308Z,18.52
2022-09-02T04:58:54.767Z,18.51
2022-09-02T05:01:25.476Z,18.50
2022-09-02T05:03:54.093Z,18.53
2022-09-02T05:06:26.332Z,18.58
2022-09-02T05:08:54.575Z,18.62
2022-09-02T05:11:29.646Z,18.65
2022-09-02T05:13:58.782Z,18.71
2022-09-02T05:16:31.816Z,18.77
2022-09-02T05:18:59.442Z,18.81
2022-09-02T05:21:26.349Z,18.63
2022-09-02T05:23:54.476Z,18.53
2022-09-02T05:26:22.663Z,18.68
2022-09-02T05:28:50.608Z,18.60
2022-09-02T05:31:20.364Z,18.55
2022-09-02T05:33:47.701Z,18.65
2022-09-02T05:36:19.059Z,18.81
2022-09-02T05:38:46.375Z,18.90
2022-09-02T05:41:17.629Z,18.91
2022-09-02T05:43:44.887Z,18.91
2022-09-02T05:46:14.839Z,18.91
2022-09-02T05:49:00.530Z,18.98
2022-09-02T05:51:27.187Z,19.10
2022-09-02T05:53:55.919Z,19.22
2022-09-02T05:56:22.986Z,19.32
2022-09-02T05:58:50.227Z,19.35
2022-09-02T06:01:19.022Z,19.45
2022-09-02T06:03:46.164Z,19.35
2022-09-02T06:06:13.651Z,19.38
2022-09-02T06:08:40.359Z,19.45
2022-09-02T06:11:09.556Z,19.52
2022-09-02T06:13:40.206Z,19.45
2022-09-02T06:16:09.218Z,19.52
2022-09-02T06:18:36.297Z,19.68
2022-09-02T06:21:06.627Z,19.81
2022-09-02T06:23:39.162Z,19.83
2022-09-02T06:26:11.180Z,19.80
2022-09-02T06:28:38.924Z,19.87
2022-09-02T06:31:11.801Z,19.97
2022-09-02T06:33:38.803Z,19.76
2022-09-02T06:36:08.708Z,19.79
2022-09-02T06:38:45.207Z,19.78
2022-09-02T06:41:14.434Z,19.74
2022-09-02T06:43:42.851Z,19.89
2022-09-02T06:46:22.077Z,19.86
2022-09-02T06:48:50.314Z,19.98
2022-09-02T06:51:23.510Z,20.05
2022-09-02T06:53:50.734Z,20.23
2022-09-02T06:56:17.771Z,20.28
2022-09-02T06:58:46.016Z,20.40
2022-09-02T07:01:24.205Z,20.42
2022-09-02T07:04:26.558Z,20.41
2022-09-02T07:06:55.089Z,20.45
2022-09-02T07:09:31.019Z,20.62
2022-09-02T07:12:04.195Z,20.72
2022-09-02T07:14:36.382Z,20.77
2022-09-02T07:17:03.414Z,20.96
2022-09-02T07:19:30.183Z,21.06
2022-09-02T07:21:56.953Z,21.19
2022-09-02T07:24:24.050Z,21.20
2022-09-02T07:26:55.623Z,21.32
2022-09-02T07:29:23.116Z,21.35
2022-09-02T07:31:50.205Z,21.31
2022-09-02T07:34:18.391Z,21.35
2022-09-02T07:36:45.973Z,21.36
2022-09-02T07:39:14.189Z,21.36
2022-09-02T07:41:42.991Z,21.43
2022-09-02T07:44:10.049Z,21.63
2022-09-02T07:46:37.772Z,21.90
2022-09-02T07:49:09.280Z,21.96
2022-09-02T07:51:37.521Z,22.15
2022-09-02T07:54:06.705Z,21.77
2022-09-02T07:56:33.602Z,21.87
2022-09-02T07:59:00.526Z,22.05
2022-09-02T08:01:27.772Z,22.21
2022-09-02T08:03:54.973Z,22.17
2022-09-02T08:06:34.849Z,22.10
2022-09-02T08:09:06.759Z,21.97
2022-09-02T08:11:36.744Z,22.03
2022-09-02T08:14:03.405Z,22.16
2022-09-02T08:16:30.349Z,21.96
2022-09-02T08:18:58.161Z,21.89
2022-09-02T08:21:25.765Z,21.97
2022-09-02T08:23:52.710Z,21.88
2022-09-02T08:26:19.618Z,21.87
2022-09-02T08:28:46.294Z,21.76
2022-09-02T08:31:12.955Z,21.79
2022-09-02T08:33:39.681Z,21.91
2022-09-02T08:36:09.162Z,22.01
2022-09-02T08:38:36.912Z,22.14
2022-09-02T08:41:13.902Z,21.88
2022-09-02T08:43:42.872Z,22.12
2022-09-02T08:46:15.250Z,22.18
2022-09-02T08:48:52.890Z,22.47
2022-09-02T08:51:35.962Z,22.67
2022-09-02T08:54:22.528Z,22.75
2022-09-02T08:56:51.617Z,22.73
2022-09-02T08:59:27.336Z,22.77
2022-09-02T09:02:09.306Z,22.90
2022-09-02T09:04:54.704Z,22.89
2022-09-02T09:07:58.417Z,22.72
2022-09-02T09:10:34.288Z,22.73
2022-09-02T09:13:25.487Z,22.79
2022-09-02T09:16:10.923Z,22.65
2022-09-02T09:18:48.840Z,22.69
2022-09-02T09:21:16.316Z,22.61
2022-09-02T09:23:44.284Z,22.55
2022-09-02T09:26:20.264Z,22.63
2022-09-02T09:28:49.246Z,22.55
2022-09-02T09:31:21.411Z,22.54
2022-09-02T09:34:02.838Z,22.65
2022-09-02T09:36:41.651Z,22.80
2022-09-02T09:39:17.454Z,22.95
2022-09-02T09:41:45.787Z,22.98
2022-09-02T09:44:47.099Z,23.12
2022-09-02T09:47:25.923Z,23.18
2022-09-02T09:50:08.497Z,22.93
2022-09-02T09:52:35.572Z,23.05
2022-09-02T09:55:16.457Z,23.04
2022-09-02T09:57:51.100Z,23.24
2022-09-02T10:00:33.342Z,23.35
2022-09-02T10:03:06.494Z,23.38
2022-09-02T10:05:39.022Z,23.42
2022-09-02T10:08:21.178Z,23.55
2022-09-02T10:11:24.685Z,23.74
2022-09-02T10:13:54.108Z,23.74
2022-09-02T10:17:00.560Z,23.92
2022-09-02T10:19:56.774Z,24.03
2022-09-02T10:22:59.905Z,23.99
2022-09-02T10:25:30.050Z,23.82
2022-09-02T10:28:15.987Z,23.54
2022-09-02T10:31:01.280Z,23.46
2022-09-02T10:33:30.453Z,23.33
2022-09-02T10:36:12.825Z,23.09
2022-09-02T10:38:49.153Z,23.26
2022-09-02T10:44:32.847Z,23.59
2022-09-02T10:47:10.007Z,23.79
2022-09-02T10:49:54.341Z,23.93
2022-09-02T10:52:39.300Z,23.99
2022-09-02T10:55:39.817Z,23.92
2022-09-02T10:58:15.065Z,23.90
2022-09-02T11:00:45.603Z,23.82
2022-09-02T11:03:22.553Z,23.80
2022-09-02T11:06:08.024Z,23.78
2022-09-02T11:08:46.505Z,23.68
2022-09-02T11:11:22.507Z,23.77
2022-09-02T11:14:00.146Z,24.04
2022-09-02T11:16:48.085Z,24.21
2022-09-02T11:19:18.318Z,24.34
2022-09-02T11:22:12.271Z,24.67
2022-09-02T11:24:46.562Z,25.06
2022-09-02T11:27:41.734Z,25.52
2022-09-02T11:30:15.176Z,25.77
2022-09-02T11:32:47.423Z,26.13
2022-09-02T11:35:28.859Z,26.06
2022-09-02T11:38:05.189Z,25.91
2022-09-02T11:40:44.374Z,26.15
2022-09-02T11:43:35.910Z,26.15
2022-09-02T11:46:23.298Z,26.02
2022-09-02T11:49:11.783Z,25.85
2022-09-02T11:52:06.400Z,25.67
2022-09-02T11:54:40.145Z,25.08
2022-09-02T11:57:11.879Z,25.14
2022-09-02T11:59:51.584Z,25.47
2022-09-02T12:02:40.016Z,25.67
2022-09-02T12:05:30.020Z,25.71
2022-09-02T12:08:00.319Z,25.73
2022-09-02T12:10:39.877Z,25.96
2022-09-02T12:13:09.475Z,25.91
2022-09-02T12:15:36.766Z,26.15
2022-09-02T12:18:13.493Z,26.16
2022-09-02T12:20:41.523Z,26.66
2022-09-02T12:23:10.348Z,26.50
2022-09-02T12:25:49.470Z,26.36
2022-09-02T12:28:27.504Z,26.40
2022-09-02T12:31:08.488Z,26.45
2022-09-02T12:33:37.079Z,26.18
2022-09-02T12:36:05.665Z,25.76
2022-09-02T12:38:34.067Z,25.49
2022-09-02T12:41:07.988Z,25.46
2022-09-02T12:43:44.786Z,25.76
2022-09-02T12:46:28.706Z,26.01
2022-09-02T12:49:05.770Z,25.90
2022-09-02T12:51:52.525Z,25.62
2022-09-02T12:54:29.985Z,25.10
2022-09-02T12:56:56.632Z,25.18
2022-09-02T12:59:42.030Z,25.19
2022-09-02T13:02:46.882Z,25.17
2022-09-02T13:05:32.059Z,25.10
2022-09-02T13:08:17.737Z,24.92
2022-09-02T13:11:05.799Z,24.66
2022-09-02T13:13:44.472Z,24.39
2022-09-02T13:16:22.549Z,24.50
2022-09-02T13:19:33.717Z,24.47
2022-09-02T13:22:09.346Z,24.42
2022-09-02T13:25:15.365Z,24.39
2022-09-02T13:28:06.522Z,24.28
2022-09-02T13:30:57.580Z,24.09
2022-09-02T13:33:26.791Z,23.77
2022-09-02T13:36:01.538Z,23.49
2022-09-02T13:38:30.301Z,23.06
2022-09-02T13:40:57.154Z,22.61
2022-09-02T13:43:27.104Z,21.99
2022-09-02T13:45:59.571Z,21.33
2022-09-02T13:48:29.247Z,20.82
2022-09-02T13:51:02.160Z,20.73
2022-09-02T13:53:54.058Z,20.33
2022-09-02T13:56:31.312Z,19.81
2022-09-02T13:58:57.938Z,19.57
2022-09-02T14:01:38.319Z,19.43
2022-09-02T14:04:16.541Z,19.18
2022-09-02T14:06:47.524Z,19.02
2022-09-02T14:09:26.329Z,18.82
2022-09-02T14:11:54.597Z,18.81
2022-09-02T14:14:24.259Z,18.79
2022-09-02T14:16:51.369Z,18.96
2022-09-02T14:19:17.948Z,19.09
2022-09-02T14:21:51.428Z,19.18
2022-09-02T14:24:24.374Z,19.24
2022-09-02T14:26:54.775Z,19.38
2022-09-02T14:29:22.417Z,19.37
2022-09-02T14:32:06.072Z,19.37
2022-09-02T14:34:33.536Z,19.53
2022-09-02T14:37:00.386Z,19.50
2022-09-02T14:39:27.471Z,19.43
2022-09-02T14:41:56.260Z,19.45
2022-09-02T14:44:32.578Z,19.47
2022-09-02T14:47:02.050Z,19.38
2022-09-02T14:49:31.284Z,19.50
2022-09-02T14:52:00.433Z,19.29
2022-09-02T14:54:40.892Z,19.24
2022-09-02T14:57:22.216Z,19.29
2022-09-02T14:59:50.924Z,19.18
2022-09-02T15:02:24.896Z,19.01
2022-09-02T15:04:51.581Z,19.18
2022-09-02T15:07:18.912Z,19.38
2022-09-02T15:09:46.117Z,19.46
2022-09-02T15:12:14.090Z,19.49
2022-09-02T15:14:47.019Z,19.49
2022-09-02T15:17:15.808Z,19.52
2022-09-02T15:19:42.508Z,19.44
2022-09-02T15:22:09.169Z,19.45
2022-09-02T15:24:35.777Z,19.30
2022-09-02T15:27:02.516Z,19.22
2022-09-02T15:29:29.243Z,19.32
2022-09-02T15:31:55.858Z,19.36
2022-09-02T15:34:26.387Z,19.40
2022-09-02T15:36:55.294Z,19.36
2022-09-02T15:39:22.982Z,19.33
2022-09-02T15:41:50.339Z,19.16
2022-09-02T15:44:18.007Z,18.99
2022-09-02T15:46:45.552Z,18.79
2022-09-02T15:49:15.843Z,18.38
2022-09-02T15:51:46.909Z,18.47
2022-09-02T15:54:16.519Z,18.42
2022-09-02T15:56:45.561Z,18.39
2022-09-02T15:59:15.234Z,18.24
2022-09-02T16:01:44.665Z,18.32
2022-09-02T16:04:12.697Z,17.96
2022-09-02T16:06:41.952Z,18.06
2022-09-02T16:09:10.441Z,18.04
2022-09-02T16:11:38.808Z,17.91
2022-09-02T16:14:06.023Z,18.06
2022-09-02T16:16:33.567Z,17.98
2022-09-02T16:19:00.338Z,17.82
2022-09-02T16:21:27.019Z,17.92
2022-09-02T16:23:53.839Z,17.75
2022-09-02T16:26:28.719Z,17.62
2022-09-02T16:29:00.908Z,17.37
2022-09-02T16:31:29.785Z,17.44
2022-09-02T16:34:02.176Z,17.37
2022-09-02T16:36:33.470Z,17.31
2022-09-02T16:39:01.180Z,17.23
2022-09-02T16:41:35.495Z,17.27
2022-09-02T16:44:05.645Z,17.02
2022-09-02T16:46:32.765Z,16.92
2022-09-02T16:48:59.481Z,16.84
2022-09-02T16:51:27.906Z,16.64
2022-09-02T16:53:59.298Z,16.61
2022-09-02T16:56:26.296Z,16.68
2022-09-02T16:58:53.644Z,16.65
2022-09-02T17:01:23.150Z,16.52
2022-09-02T17:03:50.663Z,16.44
2022-09-02T17:06:18.426Z,16.50
2022-09-02T17:08:45.157Z,16.42
2022-09-02T17:11:37.608Z,16.36
2022-09-02T17:14:07.344Z,16.43
2022-09-02T17:16:39.134Z,16.35
2022-09-02T17:19:07.018Z,16.27
2022-09-02T17:21:37.316Z,16.31
2022-09-02T17:24:06.929Z,16.14
2022-09-02T17:26:36.559Z,16.12
2022-09-02T17:29:21.418Z,16.18
2022-09-02T17:31:58.175Z,16.10
2022-09-02T17:34:26.020Z,16.19
2022-09-02T17:36:53.396Z,16.19
2022-09-02T17:39:20.665Z,16.18
2022-09-02T17:41:57.798Z,16.17
2022-09-02T17:44:35.982Z,16.15
2022-09-02T17:47:05.967Z,16.07
2022-09-02T17:49:37.557Z,16.11
2022-09-02T17:52:07.392Z,16.14
2022-09-02T17:54:38.830Z,16.19
2022-09-02T17:57:33.472Z,16.03
2022-09-02T18:00:18.971Z,16.04
2022-09-02T18:03:04.309Z,16.05
2022-09-02T18:05:42.776Z,16.07
2022-09-02T18:08:54.336Z,16.10
2022-09-02T18:11:22.622Z,16.05
2022-09-02T18:14:01.428Z,16.06
2022-09-02T18:17:04.243Z,16.07
2022-09-02T18:19:45.814Z,16.07
2022-09-02T18:22:24.712Z,16.04
2022-09-02T18:25:24.007Z,16.10
2022-09-02T18:28:31.722Z,15.94
2022-09-02T18:31:22.917Z,15.97
2022-09-02T18:33:54.960Z,15.92
2022-09-02T18:36:29.164Z,15.89
2022-09-02T18:39:27.254Z,15.82
2022-09-02T18:42:15.504Z,15.92
2022-09-02T18:45:06.690Z,15.86
2022-09-02T18:47:58.196Z,15.87
2022-09-02T18:50:52.176Z,15.84
2022-09-02T18:53:22.980Z,15.89
2022-09-02T18:55:52.194Z,15.83
2022-09-02T18:58:36.572Z,15.86
2022-09-02T19:01:29.907Z,15.91
2022-09-02T19:03:59.717Z,15.84
2022-09-02T19:06:34.285Z,15.90
2022-09-02T19:09:11.878Z,15.86
2022-09-02T19:11:39.792Z,15.93
2022-09-02T19:14:29.929Z,15.87
2022-09-02T19:16:58.350Z,15.84
2022-09-02T19:19:27.479Z,15.84
2022-09-02T19:22:15.846Z,15.83
2022-09-02T19:24:44.991Z,15.66
2022-09-02T19:27:21.411Z,15.65
2022-09-02T19:29:52.487Z,15.46
2022-09-02T19:32:25.940Z,15.49
2022-09-02T19:34:52.889Z,15.46
2022-09-02T19:37:20.233Z,15.56
2022-09-02T19:39:51.260Z,15.57
2022-09-02T19:42:20.779Z,15.52
2022-09-02T19:44:51.104Z,15.63
2022-09-02T19:50:06.213Z,15.66
2022-09-02T19:52:39.283Z,15.57
2022-09-02T19:55:06.597Z,15.53
2022-09-02T19:57:33.268Z,15.48
2022-09-02T19:59:59.971Z,15.42
2022-09-02T20:02:26.799Z,15.40
2022-09-02T20:04:53.388Z,15.43
2022-09-02T20:07:20.107Z,15.45
2022-09-02T20:09:46.853Z,15.52
2022-09-02T20:12:14.408Z,15.43
2022-09-02T20:14:41.013Z,15.46
2022-09-02T20:17:13.259Z,15.45
2022-09-02T20:19:42.234Z,15.41
2022-09-02T20:22:14.135Z,15.39
2022-09-02T20:24:41.687Z,15.45
2022-09-02T20:27:47.352Z,15.50
2022-09-02T20:30:17.650Z,15.45
2022-09-02T20:33:00.428Z,15.39
2022-09-02T20:36:01.132Z,15.36
2022-09-02T20:38:49.052Z,15.37
2022-09-02T20:41:46.656Z,15.34
2022-09-02T20:44:28.595Z,15.39
2022-09-02T20:47:07.581Z,15.51
2022-09-02T20:49:43.250Z,15.41
2022-09-02T20:52:21.873Z,15.55
2022-09-02T20:54:59.737Z,15.50
2022-09-02T20:57:50.917Z,15.45
2022-09-02T21:00:20.579Z,15.52
2022-09-02T21:03:11.030Z,15.52
2022-09-02T21:05:43.957Z,15.43
2022-09-02T21:08:24.763Z,15.38
2022-09-02T21:11:00.951Z,15.39
2022-09-02T21:13:42.963Z,15.41
2022-09-02T21:16:14.273Z,15.42
2022-09-02T21:19:19.008Z,15.39
2022-09-02T21:21:53.926Z,15.33
2022-09-02T21:24:28.459Z,15.32
2022-09-02T21:27:15.999Z,15.32
2022-09-02T21:29:52.551Z,15.34
2022-09-02T21:32:43.735Z,15.35
2022-09-02T21:35:21.427Z,15.27
2022-09-02T21:37:53.495Z,15.32
2022-09-02T21:40:20.670Z,15.35
2022-09-02T21:43:07.468Z,15.35
2022-09-02T21:45:41.923Z,15.28
2022-09-02T21:48:46.656Z,15.30
2022-09-02T21:51:22.084Z,15.35
2022-09-02T21:54:13.391Z,15.38
2022-09-02T21:56:58.957Z,15.39
2022-09-02T21:59:50.341Z,15.37
2022-09-02T22:02:29.847Z,15.25
2022-09-02T22:05:18.438Z,15.34
2022-09-02T22:07:45.058Z,15.33
2022-09-02T22:10:36.332Z,15.31
2022-09-02T22:13:04.309Z,15.30
2022-09-02T22:15:34.643Z,15.25
2022-09-02T22:18:37.669Z,15.26
2022-09-02T22:21:26.681Z,15.22
2022-09-02T22:23:54.519Z,15.22
2022-09-02T22:26:34.740Z,15.14
2022-09-02T22:29:05.807Z,15.13
2022-09-02T22:31:35.892Z,15.20
2022-09-02T22:34:05.670Z,15.13
2022-09-02T22:36:56.274Z,15.20
2022-09-02T22:39:49.371Z,15.09
2022-09-02T22:42:36.858Z,15.13
2022-09-02T22:45:40.425Z,15.06
2022-09-02T22:48:36.974Z,15.07
2022-09-02T22:51:32.384Z,15.07
2022-09-02T22:53:58.958Z,15.11
2022-09-02T22:56:39.389Z,15.11
2022-09-02T22:59:48.091Z,15.18
2022-09-02T23:02:31.369Z,15.10
2022-09-02T23:05:49.444Z,15.17
2022-09-02T23:08:21.841Z,15.03
2022-09-02T23:10:58.995Z,15.04
2022-09-02T23:13:46.053Z,15.01
2022-09-02T23:16:19.163Z,14.96
2022-09-02T23:18:52.918Z,14.95
2022-09-02T23:21:37.646Z,14.99
2022-09-02T23:24:33.009Z,14.98
2022-09-02T23:27:09.376Z,14.96
2022-09-02T23:29:37.745Z,15.01
2022-09-02T23:32:25.980Z,15.00
2022-09-02T23:34:58.571Z,14.99
2022-09-02T23:37:47.860Z,15.04
2022-09-02T23:40:28.275Z,15.00
2022-09-02T23:42:58.061Z,15.10
2022-09-02T23:45:35.636Z,15.07
2022-09-02T23:48:33.342Z,15.06
2022-09-02T23:51:13.851Z,15.02
2022-09-02T23:54:04.761Z,15.07
2022-09-02T23:57:08.826Z,15.02
2022-09-02T23:59:41.141Z,15.00
